sensor_id;sensor_type;location;lat;lon;timestamp;temperature;humidity
64869;DHT22;51349;52.424;10.840;2023-04-15T00:04:22;6.80;99.90
64869;DHT22;51349;52.424;10.840;2023-04-15T00:09:22;6.80;99.90
64869;DHT22;51349;52.424;10.840;2023-04-15T00:14:23;6.80;99.90
64869;DHT22;51349;52.424;10.840;2023-04-15T00:19:24;6.80;99.90
64869;DHT22;51349;52.424;10.840;2023-04-15T00:24:25;6.80;99.90
64869;DHT22;51349;52.424;10.840;2023-04-15T00:29:26;6.80;99.90
64869;DHT22;51349;52.424;10.840;2023-04-15T00:34:26;6.70;99.90
64869;DHT22;51349;52.424;10.840;2023-04-15T00:39:28;6.80;99.90
64869;DHT22;51349;52.424;10.840;2023-04-15T00:44:29;6.70;99.90
64869;DHT22;51349;52.424;10.840;2023-04-15T00:49:29;6.70;99.90
64869;DHT22;51349;52.424;10.840;2023-04-15T00:54:31;6.70;99.90
64869;DHT22;51349;52.424;10.840;2023-04-15T00:59:33;6.80;99.90
64869;DHT22;51349;52.424;10.840;2023-04-15T01:04:35;6.80;99.90
64869;DHT22;51349;52.424;10.840;2023-04-15T01:09:36;6.80;99.90
64869;DHT22;51349;52.424;10.840;2023-04-15T01:14:37;6.80;99.90
64869;DHT22;51349;52.424;10.840;2023-04-15T01:19:37;6.80;99.90
64869;DHT22;51349;52.424;10.840;2023-04-15T01:24:39;6.80;99.90
64869;DHT22;51349;52.424;10.840;2023-04-15T01:29:40;6.80;99.90
64869;DHT22;51349;52.424;10.840;2023-04-15T01:34:41;6.70;99.90
64869;DHT22;51349;52.424;10.840;2023-04-15T01:39:41;6.80;99.90
64869;DHT22;51349;52.424;10.840;2023-04-15T01:44:47;6.80;99.90
64869;DHT22;51349;52.424;10.840;2023-04-15T01:49:48;6.70;99.90
64869;DHT22;51349;52.424;10.840;2023-04-15T01:54:49;6.70;99.90
64869;DHT22;51349;52.424;10.840;2023-04-15T01:59:50;6.70;99.90
64869;DHT22;51349;52.424;10.840;2023-04-15T02:04:51;6.70;99.90
64869;DHT22;51349;52.424;10.840;2023-04-15T02:09:52;6.70;99.90
64869;DHT22;51349;52.424;10.840;2023-04-15T02:14:53;6.70;99.90
64869;DHT22;51349;52.424;10.840;2023-04-15T02:19:55;6.70;99.90
64869;DHT22;51349;52.424;10.840;2023-04-15T02:24:56;6.70;99.90
64869;DHT22;51349;52.424;10.840;2023-04-15T02:29:59;6.70;99.90
64869;DHT22;51349;52.424;10.840;2023-04-15T02:35:04;6.70;99.90
64869;DHT22;51349;52.424;10.840;2023-04-15T02:40:08;6.70;99.90
64869;DHT22;51349;52.424;10.840;2023-04-15T02:45:11;6.70;99.90
64869;DHT22;51349;52.424;10.840;2023-04-15T02:50:12;6.70;99.90
64869;DHT22;51349;52.424;10.840;2023-04-15T02:55:14;6.70;99.90
64869;DHT22;51349;52.424;10.840;2023-04-15T03:00:15;6.70;99.90
64869;DHT22;51349;52.424;10.840;2023-04-15T03:05:15;6.70;99.90
64869;DHT22;51349;52.424;10.840;2023-04-15T03:10:19;6.80;99.90
64869;DHT22;51349;52.424;10.840;2023-04-15T03:15:23;6.70;99.90
64869;DHT22;51349;52.424;10.840;2023-04-15T03:20:23;6.70;99.90
64869;DHT22;51349;52.424;10.840;2023-04-15T03:25:24;6.70;99.90
64869;DHT22;51349;52.424;10.840;2023-04-15T03:30:25;6.70;99.90
64869;DHT22;51349;52.424;10.840;2023-04-15T03:35:25;6.70;99.90
64869;DHT22;51349;52.424;10.840;2023-04-15T03:40:26;6.70;99.90
64869;DHT22;51349;52.424;10.840;2023-04-15T03:45:27;6.70;99.90
64869;DHT22;51349;52.424;10.840;2023-04-15T03:50:27;6.70;99.90
64869;DHT22;51349;52.424;10.840;2023-04-15T03:55:28;6.70;99.90
64869;DHT22;51349;52.424;10.840;2023-04-15T04:00:32;6.70;99.90
64869;DHT22;51349;52.424;10.840;2023-04-15T04:05:33;6.70;99.90
64869;DHT22;51349;52.424;10.840;2023-04-15T04:10:36;6.70;99.90
64869;DHT22;51349;52.424;10.840;2023-04-15T04:15:37;6.70;99.90
64869;DHT22;51349;52.424;10.840;2023-04-15T04:20:37;6.70;99.90
64869;DHT22;51349;52.424;10.840;2023-04-15T04:25:38;6.70;99.90
64869;DHT22;51349;52.424;10.840;2023-04-15T04:30:39;6.70;99.90
64869;DHT22;51349;52.424;10.840;2023-04-15T04:35:39;6.70;99.90
64869;DHT22;51349;52.424;10.840;2023-04-15T04:40:40;6.70;99.90
64869;DHT22;51349;52.424;10.840;2023-04-15T04:45:41;6.70;99.90
64869;DHT22;51349;52.424;10.840;2023-04-15T04:50:42;6.80;99.90
64869;DHT22;51349;52.424;10.840;2023-04-15T04:55:43;6.80;99.90
64869;DHT22;51349;52.424;10.840;2023-04-15T05:00:45;6.80;99.90
64869;DHT22;51349;52.424;10.840;2023-04-15T05:05:45;6.80;99.90
64869;DHT22;51349;52.424;10.840;2023-04-15T05:10:48;6.80;99.90
64869;DHT22;51349;52.424;10.840;2023-04-15T05:15:49;6.80;99.90
64869;DHT22;51349;52.424;10.840;2023-04-15T05:20:49;6.90;99.90
64869;DHT22;51349;52.424;10.840;2023-04-15T05:25:50;6.90;99.90
64869;DHT22;51349;52.424;10.840;2023-04-15T05:30:51;6.90;99.90
64869;DHT22;51349;52.424;10.840;2023-04-15T05:35:52;6.90;99.90
64869;DHT22;51349;52.424;10.840;2023-04-15T05:40:52;6.90;99.90
64869;DHT22;51349;52.424;10.840;2023-04-15T05:45:53;7.00;99.90
64869;DHT22;51349;52.424;10.840;2023-04-15T05:50:54;7.00;99.90
64869;DHT22;51349;52.424;10.840;2023-04-15T05:55:54;7.00;99.90
64869;DHT22;51349;52.424;10.840;2023-04-15T06:00:55;7.10;99.90
64869;DHT22;51349;52.424;10.840;2023-04-15T06:05:56;7.10;99.90
64869;DHT22;51349;52.424;10.840;2023-04-15T06:10:58;7.10;99.90
64869;DHT22;51349;52.424;10.840;2023-04-15T06:15:58;7.10;99.90
64869;DHT22;51349;52.424;10.840;2023-04-15T06:20:59;7.10;99.90
64869;DHT22;51349;52.424;10.840;2023-04-15T06:26:00;7.20;99.90
64869;DHT22;51349;52.424;10.840;2023-04-15T06:31:00;7.20;99.90
64869;DHT22;51349;52.424;10.840;2023-04-15T06:36:01;7.30;99.90
64869;DHT22;51349;52.424;10.840;2023-04-15T06:41:03;7.30;99.90
64869;DHT22;51349;52.424;10.840;2023-04-15T06:46:04;7.30;99.90
64869;DHT22;51349;52.424;10.840;2023-04-15T06:51:05;7.40;99.90
64869;DHT22;51349;52.424;10.840;2023-04-15T06:56:07;7.40;99.90
64869;DHT22;51349;52.424;10.840;2023-04-15T07:01:08;7.50;99.90
64869;DHT22;51349;52.424;10.840;2023-04-15T07:06:09;7.50;99.90
64869;DHT22;51349;52.424;10.840;2023-04-15T07:11:10;7.60;99.90
64869;DHT22;51349;52.424;10.840;2023-04-15T07:16:11;7.60;99.90
64869;DHT22;51349;52.424;10.840;2023-04-15T07:21:14;7.60;99.90
64869;DHT22;51349;52.424;10.840;2023-04-15T07:26:15;7.70;99.90
64869;DHT22;51349;52.424;10.840;2023-04-15T07:31:17;7.70;99.90
64869;DHT22;51349;52.424;10.840;2023-04-15T07:36:17;7.80;99.90
64869;DHT22;51349;52.424;10.840;2023-04-15T07:41:19;7.80;99.90
64869;DHT22;51349;52.424;10.840;2023-04-15T07:46:20;7.90;99.90
64869;DHT22;51349;52.424;10.840;2023-04-15T07:51:20;7.90;99.90
64869;DHT22;51349;52.424;10.840;2023-04-15T07:56:21;7.90;99.90
64869;DHT22;51349;52.424;10.840;2023-04-15T08:01:22;8.10;99.90
64869;DHT22;51349;52.424;10.840;2023-04-15T08:06:23;8.10;99.90
64869;DHT22;51349;52.424;10.840;2023-04-15T08:11:24;8.20;99.90
64869;DHT22;51349;52.424;10.840;2023-04-15T08:16:25;8.20;99.90
64869;DHT22;51349;52.424;10.840;2023-04-15T08:21:27;8.20;99.90
64869;DHT22;51349;52.424;10.840;2023-04-15T08:26:30;8.20;99.90
64869;DHT22;51349;52.424;10.840;2023-04-15T08:31:30;8.10;99.90
64869;DHT22;51349;52.424;10.840;2023-04-15T08:36:31;8.20;99.90
64869;DHT22;51349;52.424;10.840;2023-04-15T08:41:55;8.30;99.90
64869;DHT22;51349;52.424;10.840;2023-04-15T08:46:55;8.30;99.90
64869;DHT22;51349;52.424;10.840;2023-04-15T08:51:58;8.30;99.90
64869;DHT22;51349;52.424;10.840;2023-04-15T08:56:59;8.20;99.90
64869;DHT22;51349;52.424;10.840;2023-04-15T09:02:01;8.30;99.90
64869;DHT22;51349;52.424;10.840;2023-04-15T09:07:03;8.40;99.90
64869;DHT22;51349;52.424;10.840;2023-04-15T09:12:04;8.30;99.90
64869;DHT22;51349;52.424;10.840;2023-04-15T09:17:04;8.40;99.90
64869;DHT22;51349;52.424;10.840;2023-04-15T09:22:05;8.40;99.90
64869;DHT22;51349;52.424;10.840;2023-04-15T09:27:06;8.40;99.90
64869;DHT22;51349;52.424;10.840;2023-04-15T09:32:14;8.40;99.90
64869;DHT22;51349;52.424;10.840;2023-04-15T09:37:15;8.50;99.90
64869;DHT22;51349;52.424;10.840;2023-04-15T09:42:18;8.60;99.90
64869;DHT22;51349;52.424;10.840;2023-04-15T09:47:28;8.60;99.90
64869;DHT22;51349;52.424;10.840;2023-04-15T09:52:28;8.80;99.90
64869;DHT22;51349;52.424;10.840;2023-04-15T09:57:37;8.80;99.90
64869;DHT22;51349;52.424;10.840;2023-04-15T10:02:39;8.80;99.90
64869;DHT22;51349;52.424;10.840;2023-04-15T10:07:41;9.00;99.90
64869;DHT22;51349;52.424;10.840;2023-04-15T10:12:42;8.90;99.90
64869;DHT22;51349;52.424;10.840;2023-04-15T10:17:44;9.00;99.90
64869;DHT22;51349;52.424;10.840;2023-04-15T10:22:47;9.00;99.90
64869;DHT22;51349;52.424;10.840;2023-04-15T10:27:49;9.00;99.90
64869;DHT22;51349;52.424;10.840;2023-04-15T10:32:52;9.00;99.90
64869;DHT22;51349;52.424;10.840;2023-04-15T10:37:53;9.10;99.90
64869;DHT22;51349;52.424;10.840;2023-04-15T10:42:55;9.10;99.90
64869;DHT22;51349;52.424;10.840;2023-04-15T10:47:57;9.10;99.90
64869;DHT22;51349;52.424;10.840;2023-04-15T10:52:58;9.10;99.90
64869;DHT22;51349;52.424;10.840;2023-04-15T10:58:01;9.00;99.90
64869;DHT22;51349;52.424;10.840;2023-04-15T11:03:06;9.00;99.90
64869;DHT22;51349;52.424;10.840;2023-04-15T11:08:09;9.10;99.90
64869;DHT22;51349;52.424;10.840;2023-04-15T11:23:23;9.20;99.90
64869;DHT22;51349;52.424;10.840;2023-04-15T11:28:28;9.20;99.90
64869;DHT22;51349;52.424;10.840;2023-04-15T11:33:29;9.20;99.90
64869;DHT22;51349;52.424;10.840;2023-04-15T11:38:30;9.30;99.90
64869;DHT22;51349;52.424;10.840;2023-04-15T11:43:31;9.40;99.90
64869;DHT22;51349;52.424;10.840;2023-04-15T11:48:35;9.40;99.90
64869;DHT22;51349;52.424;10.840;2023-04-15T11:53:41;9.40;99.90
64869;DHT22;51349;52.424;10.840;2023-04-15T11:58:42;9.60;99.90
64869;DHT22;51349;52.424;10.840;2023-04-15T12:03:45;9.60;99.90
64869;DHT22;51349;52.424;10.840;2023-04-15T12:19:12;9.80;99.90
64869;DHT22;51349;52.424;10.840;2023-04-15T12:24:13;10.00;99.90
64869;DHT22;51349;52.424;10.840;2023-04-15T12:29:15;10.30;99.90
64869;DHT22;51349;52.424;10.840;2023-04-15T12:34:18;10.50;99.90
64869;DHT22;51349;52.424;10.840;2023-04-15T12:39:26;10.60;99.90
64869;DHT22;51349;52.424;10.840;2023-04-15T12:44:27;10.70;99.90
64869;DHT22;51349;52.424;10.840;2023-04-15T12:49:29;10.70;99.90
64869;DHT22;51349;52.424;10.840;2023-04-15T12:54:30;10.70;99.90
64869;DHT22;51349;52.424;10.840;2023-04-15T12:59:31;10.80;99.90
64869;DHT22;51349;52.424;10.840;2023-04-15T13:04:31;10.80;99.90
64869;DHT22;51349;52.424;10.840;2023-04-15T13:09:32;11.10;99.90
64869;DHT22;51349;52.424;10.840;2023-04-15T13:14:33;11.30;99.90
64869;DHT22;51349;52.424;10.840;2023-04-15T13:19:33;11.30;99.90
64869;DHT22;51349;52.424;10.840;2023-04-15T13:24:35;11.10;99.90
64869;DHT22;51349;52.424;10.840;2023-04-15T13:29:36;11.00;99.90
64869;DHT22;51349;52.424;10.840;2023-04-15T13:34:38;11.00;99.90
64869;DHT22;51349;52.424;10.840;2023-04-15T13:39:38;10.90;99.90
64869;DHT22;51349;52.424;10.840;2023-04-15T13:44:39;10.90;99.90
64869;DHT22;51349;52.424;10.840;2023-04-15T13:49:40;11.00;99.90
64869;DHT22;51349;52.424;10.840;2023-04-15T13:54:40;11.00;99.90
64869;DHT22;51349;52.424;10.840;2023-04-15T13:59:41;11.00;99.90
64869;DHT22;51349;52.424;10.840;2023-04-15T14:04:46;11.00;99.90
64869;DHT22;51349;52.424;10.840;2023-04-15T14:09:47;11.00;99.90
64869;DHT22;51349;52.424;10.840;2023-04-15T14:14:47;11.00;99.90
64869;DHT22;51349;52.424;10.840;2023-04-15T14:19:48;11.00;99.90
64869;DHT22;51349;52.424;10.840;2023-04-15T14:24:48;11.00;99.90
64869;DHT22;51349;52.424;10.840;2023-04-15T14:29:52;11.00;99.90
64869;DHT22;51349;52.424;10.840;2023-04-15T14:34:53;10.90;99.90
64869;DHT22;51349;52.424;10.840;2023-04-15T14:39:54;11.00;99.90
64869;DHT22;51349;52.424;10.840;2023-04-15T14:44:55;11.00;99.90
64869;DHT22;51349;52.424;10.840;2023-04-15T14:49:55;11.00;99.90
64869;DHT22;51349;52.424;10.840;2023-04-15T14:54:56;11.00;99.90
64869;DHT22;51349;52.424;10.840;2023-04-15T14:59:57;11.10;99.90
64869;DHT22;51349;52.424;10.840;2023-04-15T15:05:00;11.10;99.90
64869;DHT22;51349;52.424;10.840;2023-04-15T15:10:00;11.10;99.90
64869;DHT22;51349;52.424;10.840;2023-04-15T15:15:03;11.00;99.90
64869;DHT22;51349;52.424;10.840;2023-04-15T15:20:04;11.10;99.90
64869;DHT22;51349;52.424;10.840;2023-04-15T15:25:05;11.10;99.90
64869;DHT22;51349;52.424;10.840;2023-04-15T15:30:06;11.10;99.90
64869;DHT22;51349;52.424;10.840;2023-04-15T15:35:07;11.10;99.90
64869;DHT22;51349;52.424;10.840;2023-04-15T15:40:09;11.10;99.90
64869;DHT22;51349;52.424;10.840;2023-04-15T15:45:10;11.10;99.90
64869;DHT22;51349;52.424;10.840;2023-04-15T15:50:12;11.10;99.90
64869;DHT22;51349;52.424;10.840;2023-04-15T15:55:13;11.10;99.90
64869;DHT22;51349;52.424;10.840;2023-04-15T16:00:13;11.10;99.90
64869;DHT22;51349;52.424;10.840;2023-04-15T16:05:14;11.00;99.90
64869;DHT22;51349;52.424;10.840;2023-04-15T16:10:18;11.00;99.90
64869;DHT22;51349;52.424;10.840;2023-04-15T16:15:18;11.00;99.90
64869;DHT22;51349;52.424;10.840;2023-04-15T16:20:19;10.90;99.90
64869;DHT22;51349;52.424;10.840;2023-04-15T16:25:20;10.90;99.90
64869;DHT22;51349;52.424;10.840;2023-04-15T16:30:20;10.80;99.90
64869;DHT22;51349;52.424;10.840;2023-04-15T16:35:21;10.80;99.90
64869;DHT22;51349;52.424;10.840;2023-04-15T16:40:22;10.80;99.90
64869;DHT22;51349;52.424;10.840;2023-04-15T16:45:22;10.80;99.90
64869;DHT22;51349;52.424;10.840;2023-04-15T16:50:23;10.80;99.90
64869;DHT22;51349;52.424;10.840;2023-04-15T16:55:24;10.80;99.90
64869;DHT22;51349;52.424;10.840;2023-04-15T17:00:25;10.80;99.90
64869;DHT22;51349;52.424;10.840;2023-04-15T17:05:25;10.70;99.90
64869;DHT22;51349;52.424;10.840;2023-04-15T17:10:27;10.70;99.90
64869;DHT22;51349;52.424;10.840;2023-04-15T17:15:27;10.70;99.90
64869;DHT22;51349;52.424;10.840;2023-04-15T17:20:29;10.70;99.90
64869;DHT22;51349;52.424;10.840;2023-04-15T17:25:29;10.70;99.90
64869;DHT22;51349;52.424;10.840;2023-04-15T17:30:35;10.50;99.90
64869;DHT22;51349;52.424;10.840;2023-04-15T17:35:37;10.40;99.90
64869;DHT22;51349;52.424;10.840;2023-04-15T17:40:38;10.40;99.90
64869;DHT22;51349;52.424;10.840;2023-04-15T17:45:38;10.40;99.90
64869;DHT22;51349;52.424;10.840;2023-04-15T17:50:39;10.40;99.90
64869;DHT22;51349;52.424;10.840;2023-04-15T17:55:40;10.40;99.90
64869;DHT22;51349;52.424;10.840;2023-04-15T18:00:43;10.40;99.90
64869;DHT22;51349;52.424;10.840;2023-04-15T18:05:44;10.30;99.90
64869;DHT22;51349;52.424;10.840;2023-04-15T18:10:45;10.30;99.90
64869;DHT22;51349;52.424;10.840;2023-04-15T18:15:45;10.30;99.90
64869;DHT22;51349;52.424;10.840;2023-04-15T18:20:47;10.20;99.90
64869;DHT22;51349;52.424;10.840;2023-04-15T18:25:49;10.20;99.90
64869;DHT22;51349;52.424;10.840;2023-04-15T18:30:49;10.20;99.90
64869;DHT22;51349;52.424;10.840;2023-04-15T18:35:53;10.20;99.90
64869;DHT22;51349;52.424;10.840;2023-04-15T18:40:55;10.20;99.90
64869;DHT22;51349;52.424;10.840;2023-04-15T18:45:55;10.20;99.90
64869;DHT22;51349;52.424;10.840;2023-04-15T18:50:56;10.20;99.90
64869;DHT22;51349;52.424;10.840;2023-04-15T18:55:57;10.20;99.90
64869;DHT22;51349;52.424;10.840;2023-04-15T19:01:01;10.20;99.90
64869;DHT22;51349;52.424;10.840;2023-04-15T19:06:01;10.20;99.90
64869;DHT22;51349;52.424;10.840;2023-04-15T19:11:02;10.20;99.90
64869;DHT22;51349;52.424;10.840;2023-04-15T19:16:03;10.20;99.90
64869;DHT22;51349;52.424;10.840;2023-04-15T19:21:03;10.20;99.90
64869;DHT22;51349;52.424;10.840;2023-04-15T19:26:04;10.20;99.90
64869;DHT22;51349;52.424;10.840;2023-04-15T19:31:08;10.20;99.90
64869;DHT22;51349;52.424;10.840;2023-04-15T19:36:09;10.20;99.90
64869;DHT22;51349;52.424;10.840;2023-04-15T19:41:09;10.20;99.90
64869;DHT22;51349;52.424;10.840;2023-04-15T19:46:10;10.10;99.90
64869;DHT22;51349;52.424;10.840;2023-04-15T19:51:12;10.20;99.90
64869;DHT22;51349;52.424;10.840;2023-04-15T19:56:13;10.10;99.90
64869;DHT22;51349;52.424;10.840;2023-04-15T20:01:13;10.10;99.90
64869;DHT22;51349;52.424;10.840;2023-04-15T20:06:14;10.00;99.90
64869;DHT22;51349;52.424;10.840;2023-04-15T20:11:16;9.90;99.90
64869;DHT22;51349;52.424;10.840;2023-04-15T20:16:16;9.90;99.90
64869;DHT22;51349;52.424;10.840;2023-04-15T20:21:17;9.90;99.90
64869;DHT22;51349;52.424;10.840;2023-04-15T20:26:17;9.90;99.90
64869;DHT22;51349;52.424;10.840;2023-04-15T20:31:20;9.80;99.90
64869;DHT22;51349;52.424;10.840;2023-04-15T20:36:21;9.80;99.90
64869;DHT22;51349;52.424;10.840;2023-04-15T20:41:21;9.90;99.90
64869;DHT22;51349;52.424;10.840;2023-04-15T20:46:23;9.80;99.90
64869;DHT22;51349;52.424;10.840;2023-04-15T20:51:24;9.80;99.90
64869;DHT22;51349;52.424;10.840;2023-04-15T20:56:26;9.80;99.90
64869;DHT22;51349;52.424;10.840;2023-04-15T21:01:27;9.80;99.90
64869;DHT22;51349;52.424;10.840;2023-04-15T21:06:27;9.80;99.90
64869;DHT22;51349;52.424;10.840;2023-04-15T21:11:28;9.80;99.90
64869;DHT22;51349;52.424;10.840;2023-04-15T21:16:29;9.80;99.90
64869;DHT22;51349;52.424;10.840;2023-04-15T21:21:31;9.80;99.90
64869;DHT22;51349;52.424;10.840;2023-04-15T21:26:31;9.80;99.90
64869;DHT22;51349;52.424;10.840;2023-04-15T21:31:32;9.80;99.90
64869;DHT22;51349;52.424;10.840;2023-04-15T21:36:32;9.70;99.90
64869;DHT22;51349;52.424;10.840;2023-04-15T21:41:34;9.70;99.90
64869;DHT22;51349;52.424;10.840;2023-04-15T21:46:38;9.70;99.90
64869;DHT22;51349;52.424;10.840;2023-04-15T21:51:39;9.60;99.90
64869;DHT22;51349;52.424;10.840;2023-04-15T21:56:40;9.60;99.90
64869;DHT22;51349;52.424;10.840;2023-04-15T22:01:41;9.60;99.90
64869;DHT22;51349;52.424;10.840;2023-04-15T22:06:42;9.60;99.90
64869;DHT22;51349;52.424;10.840;2023-04-15T22:11:43;9.60;99.90
64869;DHT22;51349;52.424;10.840;2023-04-15T22:16:43;9.50;99.90
64869;DHT22;51349;52.424;10.840;2023-04-15T22:21:44;9.50;99.90
64869;DHT22;51349;52.424;10.840;2023-04-15T22:26:45;9.50;99.90
64869;DHT22;51349;52.424;10.840;2023-04-15T22:31:45;9.40;99.90
64869;DHT22;51349;52.424;10.840;2023-04-15T22:36:52;9.50;99.90
64869;DHT22;51349;52.424;10.840;2023-04-15T22:41:53;9.40;99.90
64869;DHT22;51349;52.424;10.840;2023-04-15T22:46:56;9.40;99.90
64869;DHT22;51349;52.424;10.840;2023-04-15T22:51:57;9.40;99.90
64869;DHT22;51349;52.424;10.840;2023-04-15T22:56:57;9.40;99.90
64869;DHT22;51349;52.424;10.840;2023-04-15T23:01:58;9.40;99.90
64869;DHT22;51349;52.424;10.840;2023-04-15T23:06:59;9.40;99.90
64869;DHT22;51349;52.424;10.840;2023-04-15T23:11:59;9.40;99.90
64869;DHT22;51349;52.424;10.840;2023-04-15T23:17:03;9.40;99.90
64869;DHT22;51349;52.424;10.840;2023-04-15T23:22:04;9.30;99.90
64869;DHT22;51349;52.424;10.840;2023-04-15T23:27:06;9.30;99.90
64869;DHT22;51349;52.424;10.840;2023-04-15T23:32:07;9.30;99.90
64869;DHT22;51349;52.424;10.840;2023-04-15T23:37:07;9.30;99.90
64869;DHT22;51349;52.424;10.840;2023-04-15T23:42:08;9.30;99.90
64869;DHT22;51349;52.424;10.840;2023-04-15T23:47:09;9.20;99.90
64869;DHT22;51349;52.424;10.840;2023-04-15T23:52:10;9.20;99.90
64869;DHT22;51349;52.424;10.840;2023-04-15T23:57:11;9.20;99.90
